TimeMDT,TemperatureF,Dew PointF,Humidity,Sea Level PressureIn,VisibilityMPH,Wind Direction,Wind SpeedMPH,Gust SpeedMPH,PrecipitationIn,Events,Conditions,WindDirDegrees,DateUTC
12:54 AM,72.0,57.0,59,29.90,10.0,WNW,8.1,-,N/A,,Clear,300,2013-07-14 06:54:00
1:54 AM,69.1,55.9,63,29.93,10.0,WNW,5.8,-,N/A,,Partly Cloudy,300,2013-07-14 07:54:00
2:54 AM,69.1,55.9,63,29.92,10.0,NW,5.8,-,N/A,,Partly Cloudy,320,2013-07-14 08:54:00
3:54 AM,66.0,55.9,70,29.92,10.0,NW,5.8,-,N/A,,Clear,310,2013-07-14 09:54:00
4:54 AM,64.0,55.0,73,29.93,10.0,West,5.8,-,N/A,,Clear,280,2013-07-14 10:54:00
5:54 AM,63.0,53.1,70,29.94,10.0,West,5.8,-,N/A,,Clear,270,2013-07-14 11:54:00
6:54 AM,64.0,55.0,73,29.96,10.0,WNW,3.5,-,N/A,,Clear,300,2013-07-14 12:54:00
7:54 AM,71.1,54.0,55,29.93,10.0,WSW,5.8,-,N/A,,Clear,250,2013-07-14 13:54:00
8:54 AM,75.0,52.0,44,29.91,10.0,NW,8.1,-,N/A,,Clear,320,2013-07-14 14:54:00
9:54 AM,80.1,53.1,39,29.91,10.0,NNW,6.9,-,N/A,,Clear,340,2013-07-14 15:54:00
10:54 AM,82.9,51.1,33,29.89,10.0,NNE,10.4,-,N/A,,Clear,30,2013-07-14 16:54:00
11:54 AM,87.1,51.1,29,29.88,10.0,NE,16.1,21.9,N/A,,Clear,50,2013-07-14 17:54:00
12:54 PM,87.1,52.0,30,29.88,10.0,NNE,13.8,28.8,N/A,,Clear,30,2013-07-14 18:54:00
1:54 PM,88.0,52.0,29,29.88,10.0,NE,16.1,25.3,N/A,,Scattered Clouds,50,2013-07-14 19:54:00
2:54 PM,84.0,52.0,33,29.88,10.0,ENE,16.1,26.5,N/A,,Overcast,70,2013-07-14 20:54:00
3:54 PM,87.1,51.1,29,29.87,10.0,NE,17.3,25.3,N/A,,Partly Cloudy,40,2013-07-14 21:54:00
4:54 PM,82.0,52.0,35,29.92,10.0,North,16.1,-,N/A,,Overcast,10,2013-07-14 22:54:00
5:07 PM,75.2,55.4,50,30.17,10.0,WNW,10.4,-,N/A,,Overcast,300,2013-07-14 23:07:00
5:54 PM,72.0,59.0,64,29.96,10.0,West,15.0,19.6,0.00,Thunderstorm,Overcast,280,2013-07-14 23:54:00
6:12 PM,71.6,57.2,60,30.19,10.0,WNW,19.6,26.5,N/A,,Overcast,290,2013-07-15 00:12:00
6:54 PM,68.0,57.0,68,29.96,10.0,West,18.4,-,N/A,,Partly Cloudy,280,2013-07-15 00:54:00
7:40 PM,68.0,55.4,64,30.17,10.0,West,23.0,27.6,N/A,Thunderstorm,Partly Cloudy,280,2013-07-15 01:40:00
7:50 PM,66.2,57.2,73,30.17,10.0,West,18.4,29.9,N/A,Thunderstorm,Mostly Cloudy,280,2013-07-15 01:50:00
7:54 PM,68.0,57.0,68,29.94,10.0,West,17.3,27.6,N/A,Thunderstorm,Mostly Cloudy,280,2013-07-15 01:54:00
8:22 PM,66.2,57.2,73,30.20,10.0,North,8.1,-,0.00,Rain-Thunderstorm,Light Rain,350,2013-07-15 02:22:00
8:40 PM,64.4,59.0,83,30.23,1.8,NW,10.4,-,0.14,Rain-Thunderstorm,Heavy Rain,320,2013-07-15 02:40:00
8:54 PM,63.0,60.1,90,29.99,1.8,West,10.4,-,0.30,Rain-Thunderstorm,Light Thunderstorms and Rain,280,2013-07-15 02:54:00
8:56 PM,62.6,60.8,94,30.22,3.0,WNW,10.4,-,0.00,Rain-Thunderstorm,Light Thunderstorms and Rain,290,2013-07-15 02:56:00
9:00 PM,62.6,60.8,94,30.21,8.0,WNW,9.2,-,0.01,Rain-Thunderstorm,Light Thunderstorms and Rain,290,2013-07-15 03:00:00
9:07 PM,62.6,60.8,94,30.21,10.0,NW,9.2,-,0.01,Rain-Thunderstorm,Light Rain,310,2013-07-15 03:07:00
9:25 PM,64.4,60.8,88,30.23,10.0,North,10.4,-,0.02,Thunderstorm,Overcast,360,2013-07-15 03:25:00
9:33 PM,64.4,62.6,94,30.23,10.0,North,5.8,-,0.02,Thunderstorm,Overcast,350,2013-07-15 03:33:00
9:37 PM,64.4,62.6,94,30.24,10.0,NNW,4.6,-,0.02,,Overcast,340,2013-07-15 03:37:00
9:54 PM,64.0,62.1,93,30.00,10.0,WNW,5.8,-,0.02,,Overcast,300,2013-07-15 03:54:00
10:08 PM,64.4,62.6,94,30.24,10.0,NW,4.6,-,N/A,Thunderstorm,Overcast,310,2013-07-15 04:08:00
10:36 PM,64.4,62.6,94,30.23,1.8,NW,25.3,38.0,0.15,Rain-Thunderstorm,Heavy Thunderstorms and Rain,310,2013-07-15 04:36:00
10:42 PM,64.4,60.8,88,30.24,1.5,Calm,Calm,-,0.20,Rain,Light Rain,0,2013-07-15 04:42:00
10:45 PM,64.4,60.8,88,30.24,2.5,Calm,Calm,-,0.20,Rain-Thunderstorm,Light Rain,0,2013-07-15 04:45:00
10:52 PM,64.4,60.8,88,30.25,10.0,North,6.9,-,0.20,Thunderstorm,Overcast,350,2013-07-15 04:52:00
10:54 PM,64.9,61.0,87,29.99,10.0,North,5.8,-,0.20,Thunderstorm,Overcast,360,2013-07-15 04:54:00
10:59 PM,64.4,62.6,94,30.25,10.0,North,5.8,-,N/A,,Overcast,360,2013-07-15 04:59:00
11:42 PM,64.4,62.6,94,30.24,4.0,North,6.9,-,0.02,Rain,Rain,10,2013-07-15 05:42:00
11:49 PM,64.4,62.6,94,30.25,3.0,NNE,8.1,-,0.03,Rain,Rain,20,2013-07-15 05:49:00
11:54 PM,64.9,64.0,97,29.98,4.0,NNE,8.1,-,0.03,Rain,Light Rain,20,2013-07-15 05:54:00